createdAt,value
2023-03-04T00:01:16.903Z,3.00
2023-03-04T00:03:51.002Z,3.00
2023-03-04T00:06:29.986Z,3.20
2023-03-04T00:09:04.943Z,2.80
2023-03-04T00:11:56.130Z,2.80
2023-03-04T00:14:30.335Z,2.90
2023-03-04T00:17:14.244Z,3.10
2023-03-04T00:19:52.864Z,3.30
2023-03-04T00:22:55.341Z,3.20
2023-03-04T00:25:32.778Z,3.10
2023-03-04T00:28:30.581Z,3.80
2023-03-04T00:31:25.584Z,3.20
2023-03-04T00:33:55.649Z,3.30
2023-03-04T00:37:04.647Z,3.60
2023-03-04T00:39:35.834Z,3.00
2023-03-04T00:42:15.231Z,3.30
2023-03-04T00:44:52.325Z,3.70
2023-03-04T00:47:39.509Z,2.90
2023-03-04T00:50:15.978Z,2.90
2023-03-04T00:52:50.474Z,3.10
2023-03-04T00:55:40.019Z,3.10
2023-03-04T00:58:29.582Z,3.60
2023-03-04T01:01:21.648Z,3.60
2023-03-04T01:03:57.557Z,3.10
2023-03-04T01:06:28.684Z,3.20
2023-03-04T01:08:59.741Z,3.50
2023-03-04T01:11:38.162Z,3.00
2023-03-04T01:14:23.582Z,2.70
2023-03-04T01:17:03.743Z,3.00
2023-03-04T01:20:22.751Z,3.10
2023-03-04T01:22:52.594Z,3.60
2023-03-04T01:25:28.124Z,2.90
2023-03-04T01:28:00.290Z,3.20
2023-03-04T01:30:39.623Z,3.60
2023-03-04T01:33:10.154Z,3.30
2023-03-04T01:35:44.024Z,3.10
2023-03-04T01:38:25.161Z,3.10
2023-03-04T01:40:56.516Z,3.50
2023-03-04T01:43:30.115Z,3.20
2023-03-04T01:46:08.884Z,3.10
2023-03-04T01:48:58.309Z,3.10
2023-03-04T01:52:02.518Z,3.40
2023-03-04T01:54:53.256Z,3.20
2023-03-04T01:57:31.066Z,3.90
2023-03-04T02:00:21.329Z,3.40
2023-03-04T02:03:14.491Z,4.30
2023-03-04T02:06:05.359Z,3.10
2023-03-04T02:08:56.925Z,3.50
2023-03-04T02:12:03.485Z,2.50
2023-03-04T02:14:35.330Z,3.10
2023-03-04T02:17:14.120Z,2.60
2023-03-04T02:20:42.398Z,2.70
2023-03-04T02:23:34.052Z,2.50
2023-03-04T02:26:28.086Z,3.50
2023-03-04T02:29:20.159Z,3.50
2023-03-04T02:32:02.432Z,3.30
2023-03-04T02:34:48.265Z,2.70
2023-03-04T02:38:08.378Z,3.20
2023-03-04T02:40:45.210Z,3.20
2023-03-04T02:43:39.330Z,2.70
2023-03-04T02:46:34.279Z,4.10
2023-03-04T02:49:37.646Z,2.50
2023-03-04T02:52:28.297Z,2.70
2023-03-04T02:55:05.801Z,3.00
2023-03-04T02:58:08.472Z,2.70
2023-03-04T03:01:02.359Z,2.20
2023-03-04T03:03:51.928Z,2.70
2023-03-04T03:06:39.236Z,2.90
2023-03-04T03:09:36.785Z,2.90
2023-03-04T03:12:09.742Z,2.70
2023-03-04T03:14:41.665Z,3.00
2023-03-04T03:17:34.208Z,3.10
2023-03-04T03:20:05.646Z,2.70
2023-03-04T03:22:47.041Z,2.90
2023-03-04T03:25:28.567Z,2.70
2023-03-04T03:28:29.348Z,2.70
2023-03-04T03:31:58.631Z,2.50
2023-03-04T03:35:15.371Z,2.70
2023-03-04T03:38:01.607Z,2.70
2023-03-04T03:41:09.643Z,2.70
2023-03-04T03:43:45.569Z,3.20
2023-03-04T03:47:03.088Z,2.20
2023-03-04T03:50:01.517Z,3.20
2023-03-04T03:52:46.659Z,2.60
2023-03-04T03:55:35.452Z,2.70
2023-03-04T03:58:28.446Z,2.70
2023-03-04T04:01:31.853Z,2.80
2023-03-04T04:04:09.686Z,3.00
2023-03-04T04:07:07.224Z,3.20
2023-03-04T04:09:38.169Z,2.90
2023-03-04T04:12:17.594Z,2.40
2023-03-04T04:15:27.019Z,3.00
2023-03-04T04:17:59.582Z,3.00
2023-03-04T04:20:47.182Z,2.40
2023-03-04T04:24:15.465Z,2.80
2023-03-04T04:27:08.143Z,3.00
2023-03-04T04:30:20.225Z,2.40
2023-03-04T04:33:32.879Z,2.80
2023-03-04T04:36:28.954Z,3.20
2023-03-04T04:39:02.065Z,2.00
2023-03-04T04:42:12.581Z,2.40
2023-03-04T04:45:25.676Z,2.60
2023-03-04T04:48:22.750Z,2.90
2023-03-04T04:51:06.219Z,2.60
2023-03-04T04:54:03.758Z,2.60
2023-03-04T04:56:59.911Z,2.50
2023-03-04T04:59:43.144Z,2.20
2023-03-04T05:02:37.680Z,2.50
2023-03-04T05:05:38.478Z,2.70
2023-03-04T05:08:26.560Z,2.30
2023-03-04T05:11:22.078Z,2.00
2023-03-04T05:14:36.068Z,2.30
2023-03-04T05:17:35.726Z,2.30
2023-03-04T05:20:18.306Z,2.40
2023-03-04T05:23:33.541Z,2.50
2023-03-04T05:26:09.214Z,1.80
2023-03-04T05:29:06.601Z,2.50
2023-03-04T05:31:45.163Z,2.10
2023-03-04T05:34:39.335Z,1.80
2023-03-04T05:37:13.929Z,2.00
2023-03-04T05:40:43.044Z,1.60
2023-03-04T05:43:19.634Z,1.80
2023-03-04T05:46:38.452Z,1.70
2023-03-04T05:49:13.303Z,1.50
2023-03-04T05:51:54.757Z,1.90
2023-03-04T05:54:51.827Z,1.60
2023-03-04T05:57:32.387Z,2.30
2023-03-04T06:00:12.989Z,2.30
2023-03-04T06:02:46.624Z,1.90
2023-03-04T06:05:19.921Z,1.60
2023-03-04T06:07:54.187Z,1.50
2023-03-04T06:10:45.143Z,2.30
2023-03-04T06:13:17.832Z,2.00
2023-03-04T06:15:50.566Z,1.80
2023-03-04T06:18:31.139Z,1.90
2023-03-04T06:21:07.807Z,1.90
2023-03-04T06:24:06.476Z,1.80
2023-03-04T06:26:45.694Z,2.60
2023-03-04T06:29:37.011Z,2.00
2023-03-04T06:32:08.758Z,1.80
2023-03-04T06:34:39.302Z,2.30
2023-03-04T06:37:09.835Z,2.30
2023-03-04T06:39:43.969Z,1.30
2023-03-04T06:42:41.915Z,1.80
2023-03-04T06:45:23.797Z,2.10
2023-03-04T06:47:54.697Z,1.80
2023-03-04T06:50:31.842Z,1.60
2023-03-04T06:53:21.147Z,2.10
2023-03-04T06:55:52.043Z,1.80
2023-03-04T06:58:34.048Z,2.20
2023-03-04T07:01:17.411Z,1.70
2023-03-04T07:03:50.620Z,1.80
2023-03-04T07:06:23.846Z,2.20
2023-03-04T07:08:58.724Z,1.70
2023-03-04T07:11:50.029Z,2.20
2023-03-04T07:14:25.460Z,2.10
2023-03-04T07:17:15.091Z,1.80
2023-03-04T07:20:07.868Z,2.50
2023-03-04T07:22:59.059Z,2.10
2023-03-04T07:25:50.766Z,2.00
2023-03-04T07:28:43.128Z,1.80
2023-03-04T07:31:28.203Z,2.00
2023-03-04T07:34:08.579Z,2.10
2023-03-04T07:37:16.803Z,2.60
2023-03-04T07:39:48.520Z,1.90
2023-03-04T07:42:31.996Z,2.10
2023-03-04T07:45:10.887Z,2.10
2023-03-04T07:48:04.549Z,2.40
2023-03-04T07:50:37.757Z,2.20
2023-03-04T07:53:10.674Z,2.40
2023-03-04T07:55:47.949Z,2.50
2023-03-04T07:58:28.310Z,2.20
2023-03-04T08:01:23.051Z,2.00
2023-03-04T08:04:33.860Z,3.40
2023-03-04T08:07:12.235Z,2.50
2023-03-04T08:09:50.693Z,1.90
2023-03-04T08:12:32.009Z,2.30
2023-03-04T08:15:13.595Z,1.90
2023-03-04T08:18:11.281Z,2.50
2023-03-04T08:20:49.292Z,2.10
2023-03-04T08:23:26.324Z,2.60
2023-03-04T08:26:29.206Z,1.60
2023-03-04T08:29:11.957Z,1.80
2023-03-04T08:31:58.238Z,1.90
2023-03-04T08:34:54.934Z,2.40
2023-03-04T08:37:38.778Z,1.80
2023-03-04T08:40:56.201Z,2.20
2023-03-04T08:43:50.440Z,2.20
2023-03-04T08:47:07.995Z,1.60
2023-03-04T08:49:42.010Z,1.90
2023-03-04T08:52:29.815Z,2.20
2023-03-04T08:55:22.229Z,1.60
2023-03-04T08:58:17.623Z,2.10
2023-03-04T09:01:31.290Z,2.10
2023-03-04T09:04:31.574Z,2.20
2023-03-04T09:07:43.507Z,1.90
2023-03-04T09:10:43.698Z,2.30
2023-03-04T09:13:37.575Z,2.50
2023-03-04T09:17:35.145Z,1.80
2023-03-04T09:20:58.517Z,1.20
2023-03-04T09:24:41.869Z,1.30
2023-03-04T09:27:56.977Z,1.40
2023-03-04T09:31:52.465Z,1.90
2023-03-04T09:36:32.650Z,1.20
2023-03-04T09:44:31.651Z,1.20
2023-03-04T09:56:29.779Z,1.20
2023-03-04T10:00:19.634Z,1.30
2023-03-04T10:12:48.794Z,1.80
2023-03-04T10:17:02.674Z,1.10
2023-03-04T10:21:44.473Z,1.40
2023-03-04T14:09:32.264Z,1.50
2023-03-04T14:16:02.350Z,2.00
2023-03-04T14:19:02.401Z,1.20
2023-03-04T14:29:07.836Z,1.70
2023-03-04T14:32:06.166Z,1.60
2023-03-04T14:38:48.260Z,1.10
2023-03-04T14:44:59.804Z,1.30
2023-03-04T14:52:17.785Z,3.10
2023-03-04T15:06:45.303Z,1.00
2023-03-04T15:13:25.399Z,0.70
2023-03-04T15:43:12.554Z,0.70
2023-03-04T17:55:29.752Z,1.30
2023-03-04T18:33:34.196Z,1.50
2023-03-04T18:56:22.975Z,1.80
2023-03-04T19:15:53.381Z,1.50
2023-03-04T19:26:20.526Z,1.50
2023-03-04T19:28:57.062Z,1.20
2023-03-04T19:31:25.434Z,1.80
2023-03-04T19:33:53.184Z,2.00
2023-03-04T19:36:20.862Z,2.30
2023-03-04T19:38:48.282Z,3.60
2023-03-04T19:41:17.332Z,4.80
2023-03-04T19:43:45.572Z,4.90
2023-03-04T19:46:13.664Z,3.80
2023-03-04T19:48:41.622Z,3.10
2023-03-04T19:51:35.343Z,2.50
2023-03-04T19:54:03.184Z,2.00
2023-03-04T19:56:30.440Z,2.30
2023-03-04T19:58:57.804Z,12.70
2023-03-04T20:01:29.755Z,11.70
2023-03-04T20:04:03.071Z,6.60
2023-03-04T20:06:31.449Z,4.40
2023-03-04T20:09:01.189Z,4.40
2023-03-04T20:11:32.583Z,3.60
2023-03-04T20:14:03.185Z,3.30
2023-03-04T20:16:34.893Z,3.20
2023-03-04T20:19:18.596Z,3.20
2023-03-04T20:22:09.080Z,2.70
2023-03-04T20:28:17.647Z,2.20
2023-03-04T20:35:12.586Z,3.00
2023-03-04T20:38:21.477Z,1.50
2023-03-04T22:06:45.770Z,1.50
2023-03-04T22:18:21.817Z,3.40
2023-03-04T22:25:17.031Z,5.20
2023-03-04T22:37:31.261Z,3.70
2023-03-04T22:40:16.293Z,2.70
2023-03-04T22:42:59.412Z,2.50
2023-03-04T22:45:29.941Z,2.60
2023-03-04T22:48:01.021Z,3.20
2023-03-04T22:50:29.210Z,3.30
2023-03-04T22:52:57.478Z,2.80
2023-03-04T22:55:25.183Z,2.20
2023-03-04T22:57:53.936Z,2.50
2023-03-04T23:00:25.482Z,2.30
2023-03-04T23:02:55.176Z,2.20
2023-03-04T23:05:22.835Z,3.00
2023-03-04T23:07:52.614Z,3.00
2023-03-04T23:10:24.302Z,2.50
2023-03-04T23:12:52.510Z,2.80
2023-03-04T23:15:20.024Z,3.10
2023-03-04T23:17:47.687Z,3.40
2023-03-04T23:20:18.996Z,2.00
2023-03-04T23:22:48.111Z,2.80
2023-03-04T23:25:16.723Z,2.60
2023-03-04T23:27:44.834Z,2.50
2023-03-04T23:30:16.385Z,3.00
2023-03-04T23:32:44.350Z,3.10
2023-03-04T23:35:12.325Z,2.30
2023-03-04T23:37:40.136Z,2.30
2023-03-04T23:40:09.273Z,2.40
2023-03-04T23:42:38.315Z,2.20
2023-03-04T23:45:07.234Z,2.00
2023-03-04T23:47:34.457Z,2.30
2023-03-04T23:50:06.422Z,2.60
2023-03-04T23:52:34.624Z,2.20
2023-03-04T23:55:02.389Z,2.80
2023-03-04T23:57:31.236Z,1.40
2023-03-04T23:59:58.385Z,2.30
